createdAt,value
2019-05-26T00:01:04.563Z,69.30
2019-05-26T00:03:34.190Z,69.10
2019-05-26T00:06:04.997Z,69.10
2019-05-26T00:08:34.807Z,69.00
2019-05-26T00:11:04.603Z,68.90
2019-05-26T00:13:34.378Z,68.90
2019-05-26T00:16:04.118Z,68.90
2019-05-26T00:18:33.893Z,68.90
2019-05-26T00:21:03.561Z,69.00
2019-05-26T00:23:33.240Z,69.70
2019-05-26T00:26:02.912Z,68.80
2019-05-26T00:28:32.695Z,68.80
2019-05-26T00:31:02.330Z,68.90
2019-05-26T00:33:32.043Z,68.70
2019-05-26T00:36:01.694Z,68.70
2019-05-26T00:38:31.482Z,68.70
2019-05-26T00:41:01.174Z,68.50
2019-05-26T00:43:31.430Z,68.50
2019-05-26T00:46:01.104Z,68.40
2019-05-26T00:48:30.871Z,68.40
2019-05-26T00:51:00.560Z,68.40
2019-05-26T00:53:30.247Z,68.30
2019-05-26T00:55:59.926Z,68.30
2019-05-26T00:58:29.622Z,68.20
2019-05-26T01:00:59.319Z,68.20
2019-05-26T01:03:28.975Z,68.80
2019-05-26T01:05:58.611Z,68.10
2019-05-26T01:08:28.322Z,68.00
2019-05-26T01:11:01.158Z,67.90
2019-05-26T01:13:29.549Z,68.00
2019-05-26T01:15:59.207Z,68.00
2019-05-26T01:18:28.891Z,67.90
2019-05-26T01:20:58.545Z,67.80
2019-05-26T01:23:28.287Z,67.80
2019-05-26T01:25:57.942Z,67.60
2019-05-26T01:28:27.640Z,67.70
2019-05-26T01:30:57.288Z,67.60
2019-05-26T01:33:26.942Z,67.60
2019-05-26T01:35:56.587Z,67.40
2019-05-26T01:38:26.343Z,67.50
2019-05-26T01:40:55.998Z,67.30
2019-05-26T01:43:26.838Z,67.30
2019-05-26T01:45:56.588Z,67.10
2019-05-26T01:48:26.279Z,67.90
2019-05-26T01:50:56.021Z,67.00
2019-05-26T01:53:25.878Z,67.00
2019-05-26T01:55:55.541Z,67.00
2019-05-26T01:58:25.302Z,66.90
2019-05-26T02:00:54.988Z,66.90
2019-05-26T02:03:24.690Z,66.80
2019-05-26T02:05:54.350Z,66.80
2019-05-26T02:08:38.436Z,66.80
2019-05-26T02:10:55.438Z,66.60
2019-05-26T02:13:25.116Z,66.60
2019-05-26T02:15:57.593Z,66.60
2019-05-26T02:18:27.288Z,66.40
2019-05-26T02:20:57.176Z,66.40
2019-05-26T02:23:26.813Z,66.40
2019-05-26T02:25:56.463Z,66.40
2019-05-26T02:28:26.195Z,66.40
2019-05-26T02:30:55.853Z,66.40
2019-05-26T02:33:25.494Z,66.40
2019-05-26T02:35:55.143Z,66.20
2019-05-26T02:38:26.274Z,66.30
2019-05-26T02:40:56.306Z,66.20
2019-05-26T02:43:25.989Z,66.10
2019-05-26T02:45:55.649Z,66.10
2019-05-26T02:48:25.327Z,66.10
2019-05-26T02:50:55.015Z,66.00
2019-05-26T02:53:24.883Z,65.80
2019-05-26T02:55:54.707Z,65.90
2019-05-26T02:58:24.387Z,65.90
2019-05-26T03:00:54.048Z,65.70
2019-05-26T03:03:23.695Z,65.70
2019-05-26T03:05:53.385Z,65.60
2019-05-26T03:08:23.087Z,65.60
2019-05-26T03:10:52.916Z,65.60
2019-05-26T03:13:22.706Z,65.60
2019-05-26T03:15:52.493Z,65.50
2019-05-26T03:18:22.265Z,65.50
2019-05-26T03:20:51.951Z,65.40
2019-05-26T03:23:22.715Z,65.30
2019-05-26T03:25:52.404Z,65.40
2019-05-26T03:28:22.216Z,65.20
2019-05-26T03:30:51.994Z,65.20
2019-05-26T03:33:21.806Z,65.20
2019-05-26T03:35:51.663Z,65.10
2019-05-26T03:38:21.501Z,65.90
2019-05-26T03:40:51.448Z,65.00
2019-05-26T03:43:21.127Z,64.90
2019-05-26T03:46:18.895Z,65.00
2019-05-26T03:48:48.589Z,65.00
2019-05-26T03:51:18.293Z,64.90
2019-05-26T03:53:49.253Z,64.80
2019-05-26T03:56:18.894Z,64.80
2019-05-26T03:58:50.723Z,64.70
2019-05-26T04:01:23.378Z,65.50
2019-05-26T04:03:55.823Z,64.60
2019-05-26T04:06:25.497Z,64.60
2019-05-26T04:08:56.167Z,64.60
2019-05-26T04:11:25.812Z,64.50
2019-05-26T04:13:55.538Z,64.50
2019-05-26T04:23:40.205Z,64.40
2019-05-26T04:32:12.788Z,64.40
2019-05-26T04:41:04.210Z,64.20
2019-05-26T04:48:16.092Z,64.20
2019-05-26T04:55:17.684Z,64.10
2019-05-26T04:57:54.099Z,64.00
2019-05-26T05:00:57.615Z,63.90
2019-05-26T05:03:31.362Z,63.90
2019-05-26T05:06:05.826Z,63.90
2019-05-26T05:12:25.559Z,63.90
2019-05-26T05:14:55.203Z,63.90
2019-05-26T05:17:24.906Z,63.80
2019-05-26T05:19:54.609Z,64.60
2019-05-26T05:22:24.240Z,63.80
2019-05-26T05:24:53.900Z,63.50
2019-05-26T05:27:24.385Z,63.70
2019-05-26T05:29:54.040Z,63.50
2019-05-26T05:32:23.699Z,63.70
2019-05-26T05:34:53.463Z,64.30
2019-05-26T05:37:25.317Z,64.90
2019-05-26T05:39:54.487Z,65.20
2019-05-26T05:42:24.128Z,64.80
2019-05-26T05:44:53.935Z,64.90
2019-05-26T05:47:23.671Z,65.40
2019-05-26T05:49:53.415Z,65.60
2019-05-26T05:52:23.064Z,65.50
2019-05-26T05:54:52.778Z,65.10
2019-05-26T05:57:22.521Z,65.30
2019-05-26T05:59:52.340Z,64.80
2019-05-26T06:02:22.019Z,64.60
2019-05-26T06:04:51.720Z,65.10
2019-05-26T06:07:21.502Z,65.20
2019-05-26T06:09:51.134Z,65.00
2019-05-26T06:12:20.920Z,65.30
2019-05-26T06:14:50.558Z,65.40
2019-05-26T06:17:20.290Z,65.20
2019-05-26T06:19:49.945Z,65.00
2019-05-26T06:22:19.585Z,64.90
2019-05-26T06:24:49.228Z,64.90
2019-05-26T06:27:19.231Z,65.70
2019-05-26T06:29:58.483Z,64.90
2019-05-26T06:32:20.237Z,64.90
2019-05-26T06:34:49.875Z,64.80
2019-05-26T06:37:19.661Z,64.80
2019-05-26T06:39:49.331Z,64.90
2019-05-26T06:42:19.211Z,64.80
2019-05-26T06:44:53.356Z,64.70
2019-05-26T06:47:20.267Z,64.70
2019-05-26T06:49:49.948Z,64.60
2019-05-26T06:52:19.587Z,64.40
2019-05-26T06:54:49.300Z,64.40
2019-05-26T06:57:19.039Z,64.30
2019-05-26T06:59:48.730Z,64.30
2019-05-26T07:02:18.412Z,64.40
2019-05-26T07:04:48.160Z,64.20
2019-05-26T07:07:18.022Z,64.30
2019-05-26T07:09:47.657Z,64.20
2019-05-26T07:12:17.347Z,63.90
2019-05-26T07:14:46.990Z,63.90
2019-05-26T07:17:20.362Z,63.80
2019-05-26T07:19:48.072Z,63.80
2019-05-26T07:22:17.766Z,63.50
2019-05-26T07:24:47.475Z,63.70
2019-05-26T07:27:17.199Z,63.70
2019-05-26T07:29:46.904Z,63.80
2019-05-26T07:32:16.547Z,63.80
2019-05-26T07:34:46.190Z,63.90
2019-05-26T07:37:16.003Z,63.80
2019-05-26T07:39:45.683Z,63.90
2019-05-26T07:42:15.553Z,63.80
2019-05-26T07:44:45.445Z,63.70
2019-05-26T07:47:15.255Z,63.70
2019-05-26T07:49:44.896Z,63.70
2019-05-26T07:52:14.674Z,63.70
2019-05-26T07:54:44.353Z,63.60
2019-05-26T07:57:14.149Z,63.60
2019-05-26T07:59:43.905Z,63.60
2019-05-26T08:02:13.731Z,63.60
2019-05-26T08:04:43.411Z,63.70
2019-05-26T08:07:13.365Z,64.00
2019-05-26T08:09:43.201Z,63.80
2019-05-26T08:12:25.749Z,63.80
2019-05-26T08:14:44.632Z,63.80
2019-05-26T08:17:14.406Z,63.90
2019-05-26T08:19:44.262Z,63.80
2019-05-26T08:22:14.056Z,63.70
2019-05-26T08:24:43.752Z,63.90
2019-05-26T08:27:13.484Z,63.50
2019-05-26T08:29:43.302Z,63.60
2019-05-26T08:32:15.043Z,63.60
2019-05-26T08:34:44.738Z,63.40
2019-05-26T08:37:14.426Z,63.50
2019-05-26T08:39:48.161Z,63.40
2019-05-26T08:42:26.726Z,63.30
2019-05-26T08:44:48.623Z,63.30
2019-05-26T08:47:19.548Z,63.30
2019-05-26T08:49:50.713Z,63.30
2019-05-26T08:52:20.531Z,63.30
2019-05-26T08:54:50.323Z,63.30
2019-05-26T08:57:20.339Z,63.30
2019-05-26T08:59:50.291Z,63.30
2019-05-26T09:02:20.178Z,63.30
2019-05-26T09:04:49.987Z,63.30
2019-05-26T09:07:19.743Z,63.20
2019-05-26T09:09:49.925Z,63.20
2019-05-26T09:12:19.931Z,63.10
2019-05-26T09:14:49.651Z,63.00
2019-05-26T09:17:22.119Z,63.00
2019-05-26T09:19:51.784Z,63.00
2019-05-26T09:22:21.431Z,63.10
2019-05-26T09:24:51.116Z,63.00
2019-05-26T09:27:39.795Z,63.00
2019-05-26T09:30:09.451Z,63.00
2019-05-26T09:32:39.115Z,63.30
2019-05-26T09:35:08.778Z,63.20
2019-05-26T09:37:38.471Z,63.40
2019-05-26T09:40:09.150Z,63.30
2019-05-26T09:42:38.823Z,63.30
2019-05-26T09:45:10.363Z,63.30
2019-05-26T09:47:40.067Z,63.40
2019-05-26T09:50:10.295Z,63.40
2019-05-26T09:52:40.320Z,63.50
2019-05-26T09:55:10.451Z,63.50
2019-05-26T09:57:40.644Z,63.80
2019-05-26T10:00:11.048Z,64.20
2019-05-26T10:02:41.275Z,64.60
2019-05-26T10:05:12.522Z,65.00
2019-05-26T10:07:42.989Z,65.20
2019-05-26T10:10:13.186Z,65.20
2019-05-26T10:12:43.300Z,65.50
2019-05-26T10:15:13.297Z,65.60
2019-05-26T10:17:44.490Z,66.00
2019-05-26T10:20:14.224Z,66.00
2019-05-26T10:22:43.860Z,66.10
2019-05-26T10:25:13.490Z,66.30
2019-05-26T10:27:43.215Z,66.40
2019-05-26T10:30:14.320Z,66.40
2019-05-26T10:32:44.008Z,66.40
2019-05-26T10:35:13.705Z,66.10
2019-05-26T10:37:43.394Z,66.20
2019-05-26T10:40:13.131Z,66.10
2019-05-26T10:42:45.361Z,65.70
2019-05-26T10:45:15.140Z,66.40
2019-05-26T10:47:45.065Z,66.40
2019-05-26T10:50:16.100Z,66.10
2019-05-26T10:52:45.857Z,66.50
2019-05-26T10:55:15.527Z,66.70
2019-05-26T10:57:45.253Z,66.50
2019-05-26T11:00:15.079Z,66.40
2019-05-26T11:02:47.773Z,66.40
2019-05-26T11:05:17.532Z,66.20
2019-05-26T11:07:47.302Z,66.30
2019-05-26T11:10:17.790Z,67.00
2019-05-26T11:12:47.448Z,66.10
2019-05-26T11:15:17.192Z,66.30
2019-05-26T11:17:47.103Z,66.10
2019-05-26T11:20:16.923Z,66.70
2019-05-26T11:22:46.818Z,66.00
2019-05-26T11:25:17.111Z,65.80
2019-05-26T11:27:47.323Z,65.40
2019-05-26T11:30:17.693Z,65.30
2019-05-26T11:32:48.359Z,65.20
2019-05-26T11:35:19.509Z,65.10
2019-05-26T11:37:49.289Z,65.10
2019-05-26T11:40:19.104Z,65.00
2019-05-26T11:42:48.813Z,65.00
2019-05-26T11:45:18.751Z,65.00
2019-05-26T11:47:49.361Z,65.00
2019-05-26T11:50:19.287Z,65.00
2019-05-26T11:52:48.982Z,64.90
2019-05-26T11:55:18.830Z,64.70
2019-05-26T11:57:48.715Z,64.70
2019-05-26T12:00:18.525Z,64.90
2019-05-26T12:02:48.180Z,65.10
2019-05-26T12:05:18.138Z,66.50
2019-05-26T12:07:47.995Z,66.00
2019-05-26T12:10:17.667Z,66.50
2019-05-26T12:12:47.316Z,66.70
2019-05-26T12:15:17.048Z,66.70
2019-05-26T12:17:49.006Z,66.60
2019-05-26T12:20:18.660Z,66.60
2019-05-26T12:22:49.883Z,67.50
2019-05-26T12:25:19.584Z,67.90
2019-05-26T12:27:49.306Z,67.30
2019-05-26T12:30:18.960Z,66.40
2019-05-26T12:32:48.600Z,65.90
2019-05-26T12:35:18.263Z,65.80
2019-05-26T12:37:48.683Z,65.50
2019-05-26T12:40:18.707Z,66.60
2019-05-26T12:42:49.132Z,66.00
2019-05-26T12:45:19.777Z,65.70
2019-05-26T12:47:51.102Z,65.50
2019-05-26T12:50:21.557Z,65.40
2019-05-26T12:52:54.781Z,65.30
2019-05-26T12:55:24.546Z,66.00
2019-05-26T12:57:54.322Z,65.20
2019-05-26T13:00:25.291Z,65.20
2019-05-26T13:02:54.999Z,65.10
2019-05-26T13:05:24.630Z,65.00
2019-05-26T13:07:54.523Z,65.00
2019-05-26T13:10:24.231Z,65.00
2019-05-26T13:12:53.952Z,64.90
2019-05-26T13:15:23.728Z,64.90
2019-05-26T13:17:53.406Z,65.00
2019-05-26T13:20:24.623Z,64.80
2019-05-26T13:22:54.515Z,64.80
2019-05-26T13:25:24.400Z,64.80
2019-05-26T13:27:54.142Z,64.70
2019-05-26T13:30:23.821Z,64.60
2019-05-26T13:32:53.571Z,64.60
2019-05-26T13:35:23.371Z,64.50
2019-05-26T13:37:53.393Z,64.60
2019-05-26T13:40:23.045Z,64.40
2019-05-26T13:42:52.811Z,64.60
2019-05-26T13:45:23.462Z,65.10
2019-05-26T13:47:53.459Z,64.90
2019-05-26T13:50:23.169Z,64.30
2019-05-26T13:52:52.848Z,64.40
2019-05-26T13:55:22.612Z,64.30
2019-05-26T13:57:52.434Z,64.30
2019-05-26T14:00:23.950Z,64.30
2019-05-26T14:02:53.632Z,64.10
2019-05-26T14:05:26.091Z,64.90
2019-05-26T14:07:55.816Z,64.20
2019-05-26T14:10:35.854Z,64.10
2019-05-26T14:13:06.044Z,64.00
2019-05-26T14:15:38.561Z,64.00
2019-05-26T14:18:07.232Z,63.90
2019-05-26T14:20:38.230Z,63.90
2019-05-26T14:23:08.543Z,63.80
2019-05-26T14:25:38.467Z,63.80
2019-05-26T14:28:08.388Z,63.80
2019-05-26T14:30:38.299Z,63.80
2019-05-26T14:33:08.007Z,63.80
2019-05-26T14:35:37.716Z,63.70
2019-05-26T14:38:07.494Z,63.70
2019-05-26T14:40:37.340Z,63.70
2019-05-26T14:43:07.047Z,63.60
2019-05-26T14:45:52.050Z,63.60
2019-05-26T14:48:08.250Z,64.50
2019-05-26T14:50:40.594Z,63.70
2019-05-26T14:53:09.269Z,63.60
2019-05-26T14:55:38.982Z,63.60
2019-05-26T14:58:15.850Z,63.60
2019-05-26T15:00:40.131Z,63.60
2019-05-26T15:03:09.862Z,63.50
2019-05-26T15:05:39.555Z,63.40
2019-05-26T15:08:09.234Z,63.40
2019-05-26T15:10:38.924Z,63.40
2019-05-26T15:13:08.638Z,63.30
2019-05-26T15:15:38.318Z,63.20
2019-05-26T15:18:08.103Z,63.20
2019-05-26T15:20:37.765Z,63.20
2019-05-26T15:23:07.524Z,63.20
2019-05-26T15:25:37.234Z,63.20
2019-05-26T15:28:07.046Z,63.10
2019-05-26T15:30:36.815Z,63.10
2019-05-26T15:33:06.604Z,63.10
2019-05-26T15:35:36.495Z,63.10
2019-05-26T15:38:06.261Z,63.10
2019-05-26T15:40:36.053Z,63.10
2019-05-26T15:43:05.819Z,62.90
2019-05-26T15:45:35.527Z,62.80
2019-05-26T15:48:05.286Z,62.90
2019-05-26T15:50:35.020Z,62.80
2019-05-26T15:53:04.771Z,62.90
2019-05-26T15:55:34.443Z,62.90
2019-05-26T15:58:04.400Z,62.90
2019-05-26T16:00:34.227Z,62.90
2019-05-26T16:03:03.902Z,62.90
2019-05-26T16:05:33.675Z,63.00
2019-05-26T16:08:03.427Z,62.90
2019-05-26T16:10:33.094Z,62.80
2019-05-26T16:13:02.793Z,63.00
2019-05-26T16:15:33.324Z,62.80
2019-05-26T16:18:03.203Z,62.80
2019-05-26T16:20:33.003Z,62.60
2019-05-26T16:23:02.711Z,62.90
2019-05-26T16:25:32.355Z,62.80
2019-05-26T16:28:02.050Z,62.90
2019-05-26T16:30:34.784Z,62.80
2019-05-26T16:33:04.500Z,62.70
2019-05-26T16:35:34.251Z,62.60
2019-05-26T16:38:04.083Z,62.60
2019-05-26T16:40:33.766Z,62.60
2019-05-26T16:43:03.436Z,62.70
2019-05-26T16:45:36.768Z,62.70
2019-05-26T16:48:04.694Z,62.70
2019-05-26T16:50:34.478Z,62.80
2019-05-26T16:53:04.251Z,62.60
2019-05-26T16:55:34.059Z,62.70
2019-05-26T16:58:06.640Z,62.60
2019-05-26T17:00:35.224Z,62.50
2019-05-26T17:03:05.031Z,62.50
2019-05-26T17:05:34.968Z,62.60
2019-05-26T17:08:04.696Z,63.30
2019-05-26T17:10:34.471Z,62.40
2019-05-26T17:13:04.152Z,62.50
2019-05-26T17:15:34.195Z,62.40
2019-05-26T17:18:04.036Z,62.40
2019-05-26T17:20:33.731Z,62.50
2019-05-26T17:23:03.462Z,62.50
2019-05-26T17:25:33.158Z,62.40
2019-05-26T17:28:02.961Z,62.50
2019-05-26T17:30:33.040Z,62.60
2019-05-26T17:33:02.789Z,62.50
2019-05-26T17:35:32.713Z,62.60
2019-05-26T17:38:02.476Z,62.50
2019-05-26T17:40:32.228Z,62.60
2019-05-26T17:43:02.032Z,62.50
2019-05-26T17:45:31.718Z,62.60
2019-05-26T17:48:01.708Z,62.50
2019-05-26T17:50:31.620Z,62.50
2019-05-26T17:53:01.282Z,62.60
2019-05-26T17:55:30.947Z,62.60
2019-05-26T17:58:00.704Z,62.70
2019-05-26T18:00:30.412Z,62.50
2019-05-26T18:03:00.118Z,62.60
2019-05-26T18:05:29.930Z,62.50
2019-05-26T18:07:59.743Z,62.40
2019-05-26T18:10:29.402Z,62.50
2019-05-26T18:12:59.166Z,62.50
2019-05-26T18:15:29.025Z,62.50
2019-05-26T18:17:59.475Z,62.60
2019-05-26T18:20:29.150Z,62.50
2019-05-26T18:22:59.085Z,62.50
2019-05-26T18:25:29.267Z,62.40
2019-05-26T18:27:58.996Z,62.40
2019-05-26T18:30:28.782Z,62.30
2019-05-26T18:32:58.610Z,62.20
2019-05-26T18:35:28.262Z,62.30
2019-05-26T18:37:57.955Z,62.20
2019-05-26T18:40:27.720Z,62.10
2019-05-26T18:42:57.626Z,62.20
2019-05-26T18:45:27.362Z,62.10
2019-05-26T18:48:02.798Z,61.90
2019-05-26T18:50:28.498Z,62.10
2019-05-26T18:52:58.310Z,61.90
2019-05-26T18:55:28.380Z,61.90
2019-05-26T18:57:58.170Z,61.70
2019-05-26T19:00:31.015Z,61.70
2019-05-26T19:02:59.407Z,61.60
2019-05-26T19:05:33.724Z,61.60
2019-05-26T19:08:00.534Z,61.60
2019-05-26T19:10:30.345Z,61.70
2019-05-26T19:13:00.088Z,61.50
2019-05-26T19:15:29.874Z,61.40
2019-05-26T19:17:59.663Z,61.60
2019-05-26T19:20:29.392Z,61.60
2019-05-26T19:22:59.236Z,61.60
2019-05-26T19:25:29.152Z,61.40
2019-05-26T19:27:59.002Z,61.60
2019-05-26T19:30:28.778Z,62.30
2019-05-26T19:32:58.587Z,61.50
2019-05-26T19:35:28.398Z,61.60
2019-05-26T19:37:58.206Z,61.50
2019-05-26T19:40:29.225Z,61.40
2019-05-26T19:42:58.882Z,61.30
2019-05-26T19:45:29.028Z,61.40
2019-05-26T19:47:58.747Z,61.40
2019-05-26T19:50:28.399Z,61.40
2019-05-26T19:52:58.219Z,61.20
2019-05-26T19:55:28.685Z,61.30
2019-05-26T19:57:58.365Z,61.20
2019-05-26T20:00:28.860Z,61.00
2019-05-26T20:02:58.518Z,61.20
2019-05-26T20:05:28.264Z,61.00
2019-05-26T20:07:58.079Z,60.90
2019-05-26T20:10:27.751Z,60.90
2019-05-26T20:12:57.648Z,60.90
2019-05-26T20:15:27.344Z,60.70
2019-05-26T20:17:57.238Z,60.70
2019-05-26T20:20:26.979Z,61.40
2019-05-26T20:22:56.683Z,60.80
2019-05-26T20:25:26.494Z,60.70
2019-05-26T20:27:56.402Z,60.70
2019-05-26T20:30:26.068Z,60.70
2019-05-26T20:32:55.930Z,61.40
2019-05-26T20:35:25.747Z,60.60
2019-05-26T20:37:55.522Z,60.60
2019-05-26T20:40:25.375Z,61.30
2019-05-26T20:42:55.047Z,60.50
2019-05-26T20:45:24.886Z,60.20
2019-05-26T20:47:55.006Z,60.40
2019-05-26T20:50:29.528Z,59.80
2019-05-26T20:52:56.323Z,60.40
2019-05-26T20:55:25.980Z,60.40
2019-05-26T20:57:55.789Z,60.30
2019-05-26T21:00:25.469Z,60.70
2019-05-26T21:02:55.316Z,60.40
2019-05-26T21:05:25.093Z,60.30
2019-05-26T21:07:54.960Z,60.30
2019-05-26T21:10:24.723Z,60.20
2019-05-26T21:12:54.473Z,60.30
2019-05-26T21:15:24.384Z,60.30
2019-05-26T21:17:54.130Z,60.40
2019-05-26T21:20:23.897Z,61.10
2019-05-26T21:22:53.607Z,60.20
2019-05-26T21:25:23.318Z,60.30
2019-05-26T21:27:53.099Z,60.30
2019-05-26T21:30:23.320Z,60.20
2019-05-26T21:32:52.969Z,60.20
2019-05-26T21:35:22.738Z,60.90
2019-05-26T21:37:52.426Z,60.20
2019-05-26T21:40:23.111Z,60.10
2019-05-26T21:42:52.820Z,60.10
2019-05-26T21:45:22.543Z,60.20
2019-05-26T21:47:52.312Z,60.90
2019-05-26T21:50:22.055Z,60.20
2019-05-26T21:52:51.867Z,60.10
2019-05-26T21:55:21.676Z,60.10
2019-05-26T21:57:51.426Z,60.10
2019-05-26T22:00:24.512Z,60.10
2019-05-26T22:02:54.188Z,60.10
2019-05-26T22:05:23.897Z,60.00
2019-05-26T22:07:53.707Z,60.00
2019-05-26T22:10:23.630Z,60.10
2019-05-26T22:12:53.305Z,60.90
2019-05-26T22:15:23.016Z,60.10
2019-05-26T22:17:52.722Z,60.00
2019-05-26T22:20:22.447Z,60.00
2019-05-26T22:22:52.177Z,60.00
2019-05-26T22:25:21.857Z,60.00
2019-05-26T22:27:51.633Z,60.00
2019-05-26T22:30:21.510Z,60.00
2019-05-26T22:32:51.445Z,59.90
2019-05-26T22:35:21.134Z,60.10
2019-05-26T22:37:50.947Z,60.00
2019-05-26T22:40:20.682Z,59.90
2019-05-26T22:42:50.471Z,59.90
2019-05-26T22:45:20.217Z,60.00
2019-05-26T22:47:50.026Z,59.90
2019-05-26T22:50:19.814Z,59.90
2019-05-26T22:52:49.583Z,59.80
2019-05-26T22:55:19.323Z,59.80
2019-05-26T22:57:51.119Z,59.70
2019-05-26T23:00:21.104Z,59.70
2019-05-26T23:02:50.755Z,59.70
2019-05-26T23:05:20.643Z,59.70
2019-05-26T23:07:50.434Z,59.60
2019-05-26T23:10:21.678Z,59.60
2019-05-26T23:12:51.491Z,59.70
2019-05-26T23:15:21.204Z,59.60
2019-05-26T23:17:51.107Z,59.60
2019-05-26T23:20:20.928Z,59.60
2019-05-26T23:22:50.748Z,59.60
2019-05-26T23:25:20.406Z,59.60
2019-05-26T23:27:50.162Z,59.60
2019-05-26T23:30:20.001Z,59.60
2019-05-26T23:32:49.787Z,60.20
2019-05-26T23:35:19.464Z,59.50
2019-05-26T23:37:49.222Z,59.50
2019-05-26T23:40:18.888Z,59.50
2019-05-26T23:42:48.564Z,59.50
2019-05-26T23:45:18.343Z,59.50
2019-05-26T23:47:48.267Z,59.50
2019-05-26T23:50:17.978Z,60.10
2019-05-26T23:52:47.639Z,59.50
2019-05-26T23:55:17.497Z,59.60
2019-05-26T23:57:47.266Z,59.50
